Yonago, Japan

4:10 AM JST on July 23, 2014 (GMT +0900)
Miho Aero (RJOH) Elev 20 ft | 35.49 °N, 133.24 °E | Change Station

Current weather conditions updated 10 minutes ago

Mostly Cloudy
Mostly Cloudy
75 °F
Feels Like 75 °F
N
6
Wind Variable Wind from South

Today is forecast to be nearly the same temperature as yesterday.

Today
High -- | Low -- °F
--% Chance of Precip.
Yesterday
High -- | Low -- °F
Precip. -- in
5:08 AM 7:17 PM
Waning Crescent, 15% visible
Pressure 29.74 in
Visibility 6.2 miles
Clouds Few 3000 ft
Mostly Cloudy 4000 ft
Dew Point 72 °F
Humidity 89%
Rainfall 0.00 in
Snow Depth Not available.
UV 0 out of 12
Pollen Not available.
Air Quality Not available.
Flu Activity Not available.
METAR RJOH 221900Z 18005KT 9999 FEW030 BKN040 BKN/// 24/22 Q1007

More Conditions Fewer Conditions

Pressure 29.74 in
Visibility 6.2 miles
Clouds Few 3000 ft
Mostly Cloudy 4000 ft
Dew Point 72 °F
Humidity 89%
Rainfall 0.00 in
Snow Depth Not available.
UV 0 out of 12
Pollen Not available.
Air Quality Not available.
Flu Activity Not available.
METAR RJOH 221900Z 18005KT 9999 FEW030 BKN040 BKN/// 24/22 Q1007

More Conditions Fewer Conditions

10-Day Weather Forecast

Almanac

Astronomy

Jul. 23, 2014 Rise Set
Actual Time 5:08 AM JST 7:17 PM JST
Civil Twilight 4:39 AM JST 7:46 PM JST
Nautical Twilight 4:04 AM JST 8:21 PM JST
Astronomical Twilight 3:26 AM JST 8:59 PM JST
Moon 1:57 AM JST (7/23) 4:16 PM JST (7/23)
Length of Visible Light 15h 07m
Length of Day
14h 09m
Tomorrow will be 1m 24s shorter.
Waning Crescent, 15% of the Moon is Illuminated
Jul 22
Waning Crescent
Jul 26
New
Aug 3
First Quarter
Aug 10
Full
Aug 17
Last Quarter

Yesterday's Extremes

Country Highs Country Lows

Community

WunderPhotos

Upload Photos

1,736,333 photos uploaded!

Nearby

Snow Depth

Not available.

Earthquake Activity

City Distance Mag. Time & Date
No recent earthquake activity has been reported nearby.
Minimum magnitude displayed is 2.5.

Coastal Water Temperatures

Place Temperature
No Stations Reporting

Nearby Weather Stations

There are no personal weather stations in this area.